createdAt,value
2019-05-03T00:00:58.164Z,79.50
2019-05-03T00:05:06.805Z,77.90
2019-05-03T00:09:15.243Z,78.00
2019-05-03T00:13:21.874Z,77.90
2019-05-03T00:17:28.930Z,78.20
2019-05-03T00:21:34.628Z,76.40
2019-05-03T00:25:41.832Z,76.50
2019-05-03T00:29:47.616Z,76.00
2019-05-03T00:34:10.219Z,77.80
2019-05-03T00:38:16.892Z,80.70
2019-05-03T00:42:22.735Z,78.80
2019-05-03T00:46:28.511Z,77.20
2019-05-03T00:50:34.206Z,77.90
2019-05-03T00:54:39.891Z,77.60
2019-05-03T00:58:49.865Z,77.30
2019-05-03T01:02:55.593Z,76.80
2019-05-03T01:07:02.267Z,78.10
2019-05-03T01:11:08.375Z,78.70
2019-05-03T01:15:16.141Z,78.40
2019-05-03T01:19:22.731Z,77.70
2019-05-03T01:23:28.509Z,77.40
2019-05-03T01:27:34.322Z,77.80
2019-05-03T01:31:42.063Z,79.60
2019-05-03T01:35:47.393Z,79.50
2019-05-03T01:39:53.092Z,79.90
2019-05-03T01:43:58.869Z,80.50
2019-05-03T01:48:06.402Z,80.40
2019-05-03T01:52:28.843Z,80.40
2019-05-03T01:56:34.534Z,81.30
2019-05-03T02:00:42.296Z,83.30
2019-05-03T02:04:49.524Z,82.00
2019-05-03T02:08:55.210Z,80.80
2019-05-03T02:13:01.698Z,80.00
2019-05-03T02:17:07.461Z,82.20
2019-05-03T02:21:13.181Z,83.40
2019-05-03T02:25:18.892Z,84.00
2019-05-03T02:29:24.566Z,83.90
2019-05-03T02:33:32.717Z,84.60
2019-05-03T02:37:39.218Z,84.30
2019-05-03T02:41:47.947Z,81.40
2019-05-03T02:46:07.215Z,80.80
2019-05-03T02:50:16.674Z,81.50
2019-05-03T02:54:22.242Z,83.20
2019-05-03T02:58:27.925Z,83.30
2019-05-03T03:02:36.530Z,83.70
2019-05-03T03:06:45.733Z,85.10
2019-05-03T03:10:55.669Z,84.70
2019-05-03T03:15:05.937Z,82.70
2019-05-03T03:19:15.879Z,82.40
2019-05-03T03:23:26.270Z,82.70
2019-05-03T03:27:36.369Z,82.00
2019-05-03T03:31:48.306Z,83.50
2019-05-03T03:36:01.090Z,82.60
2019-05-03T03:40:01.519Z,83.80
2019-05-03T03:44:07.863Z,84.10
2019-05-03T03:48:18.084Z,84.00
2019-05-03T03:52:25.571Z,83.90
2019-05-03T03:56:46.036Z,83.40
2019-05-03T04:00:46.204Z,83.00
2019-05-03T04:04:50.933Z,83.90
2019-05-03T04:08:56.851Z,82.70
2019-05-03T04:13:05.452Z,84.40
2019-05-03T04:17:15.065Z,82.00
2019-05-03T04:21:21.406Z,80.90
2019-05-03T04:25:28.316Z,82.80
2019-05-03T04:29:36.309Z,82.80
2019-05-03T04:33:42.106Z,82.70
2019-05-03T04:37:55.885Z,82.40
2019-05-03T04:42:01.861Z,82.80
2019-05-03T04:46:13.071Z,83.40
2019-05-03T04:50:18.787Z,81.90
2019-05-03T04:54:29.190Z,81.80
2019-05-03T04:58:36.400Z,82.90
2019-05-03T05:02:42.404Z,82.60
2019-05-03T05:06:48.109Z,81.10
2019-05-03T05:10:55.948Z,82.00
2019-05-03T05:15:01.326Z,80.80
2019-05-03T05:19:11.377Z,81.90
2019-05-03T05:23:17.141Z,79.70
2019-05-03T05:27:27.403Z,80.00
2019-05-03T05:31:33.104Z,79.70
2019-05-03T05:35:38.807Z,80.40
2019-05-03T05:39:44.820Z,81.20
2019-05-03T05:43:50.556Z,80.90
2019-05-03T05:48:00.581Z,79.30
2019-05-03T05:52:06.324Z,80.30
2019-05-03T05:56:16.665Z,78.30
2019-05-03T06:00:35.975Z,75.90
2019-05-03T06:04:41.664Z,75.80
2019-05-03T06:08:55.482Z,76.70
2019-05-03T06:13:20.954Z,78.80
2019-05-03T06:17:45.064Z,79.30
2019-05-03T06:22:05.133Z,77.90
2019-05-03T06:26:28.713Z,80.20
2019-05-03T06:30:39.030Z,79.90
2019-05-03T06:34:45.513Z,81.20
2019-05-03T06:38:51.409Z,79.70
2019-05-03T06:43:08.379Z,80.90
2019-05-03T06:47:08.714Z,77.70
2019-05-03T06:51:19.253Z,79.30
2019-05-03T06:55:19.451Z,77.90
2019-05-03T06:59:32.659Z,77.20
2019-05-03T07:03:51.511Z,78.30
2019-05-03T07:07:58.838Z,76.00
2019-05-03T07:12:04.764Z,77.80
2019-05-03T07:16:10.463Z,77.90
2019-05-03T07:20:16.211Z,76.00
2019-05-03T07:24:21.971Z,76.80
2019-05-03T07:28:27.722Z,77.70
2019-05-03T07:32:34.814Z,76.70
2019-05-03T07:36:40.566Z,76.60
2019-05-03T07:40:46.319Z,75.80
2019-05-03T07:44:51.986Z,77.50
2019-05-03T07:48:57.682Z,79.20
2019-05-03T07:53:04.666Z,78.00
2019-05-03T07:57:29.862Z,76.80
2019-05-03T08:01:39.969Z,77.60
2019-05-03T08:05:45.990Z,80.50
2019-05-03T08:09:51.675Z,78.50
2019-05-03T08:13:57.371Z,79.20
2019-05-03T08:18:04.821Z,80.20
2019-05-03T08:22:10.640Z,76.40
2019-05-03T08:26:16.459Z,76.70
2019-05-03T08:30:26.849Z,75.00
2019-05-03T08:34:36.823Z,72.10
2019-05-03T08:38:42.491Z,70.90
2019-05-03T08:42:48.175Z,68.20
2019-05-03T08:46:56.278Z,65.60
2019-05-03T08:51:04.489Z,65.70
2019-05-03T08:55:11.852Z,61.90
2019-05-03T08:59:28.776Z,60.30
2019-05-03T09:03:25.077Z,58.90
2019-05-03T09:07:30.765Z,61.40
2019-05-03T09:11:36.993Z,60.60
2019-05-03T09:15:44.652Z,55.60
2019-05-03T09:19:50.357Z,59.80
2019-05-03T09:23:56.076Z,59.30
2019-05-03T09:28:01.830Z,58.70
2019-05-03T09:32:07.650Z,58.90
2019-05-03T09:36:14.722Z,59.40
2019-05-03T09:40:21.707Z,59.50
2019-05-03T09:44:27.385Z,56.30
2019-05-03T09:48:34.686Z,57.50
2019-05-03T09:52:40.532Z,58.50
2019-05-03T09:56:59.162Z,54.70
2019-05-03T10:01:08.334Z,55.90
2019-05-03T10:05:12.936Z,53.80
2019-05-03T10:09:18.861Z,52.20
2019-05-03T10:13:27.203Z,48.00
2019-05-03T10:17:35.114Z,46.50
2019-05-03T10:21:44.798Z,43.20
2019-05-03T10:25:50.235Z,45.70
2019-05-03T10:30:09.074Z,47.70
2019-05-03T10:34:05.799Z,48.20
2019-05-03T10:38:11.664Z,43.70
2019-05-03T10:42:17.356Z,42.90
2019-05-03T10:46:24.934Z,43.90
2019-05-03T10:50:31.459Z,45.70
2019-05-03T10:54:37.170Z,45.20
2019-05-03T10:58:45.270Z,50.50
2019-05-03T11:02:54.956Z,51.30
2019-05-03T11:07:00.103Z,45.40
2019-05-03T11:11:06.020Z,46.40
2019-05-03T11:15:12.381Z,39.50
2019-05-03T11:19:18.113Z,40.80
2019-05-03T11:23:25.184Z,40.00
2019-05-03T11:27:32.675Z,37.70
2019-05-03T11:31:55.862Z,35.30
2019-05-03T11:40:40.757Z,33.10
2019-05-03T11:44:46.432Z,33.70
2019-05-03T11:48:52.115Z,35.30
2019-05-03T11:52:57.796Z,36.10
2019-05-03T11:57:05.433Z,37.50
2019-05-03T12:01:18.884Z,37.90
2019-05-03T12:40:59.577Z,39.30
2019-05-03T12:45:06.786Z,33.10
2019-05-03T12:50:07.953Z,32.10
2019-05-03T12:54:15.227Z,32.30
2019-05-03T12:58:22.609Z,31.70
2019-05-03T13:02:35.346Z,34.60
2019-05-03T13:06:45.393Z,34.30
2019-05-03T13:10:51.124Z,35.20
2019-05-03T13:14:56.806Z,34.60
2019-05-03T13:19:02.497Z,32.00
2019-05-03T13:23:08.244Z,32.50
2019-05-03T13:27:14.921Z,32.10
2019-05-03T13:31:20.641Z,31.30
2019-05-03T13:35:26.330Z,29.80
2019-05-03T13:39:32.007Z,33.40
2019-05-03T13:43:37.836Z,32.80
2019-05-03T13:47:44.752Z,33.60
2019-05-03T13:51:50.494Z,33.50
2019-05-03T13:55:56.218Z,30.90
2019-05-03T14:00:02.062Z,31.50
2019-05-03T14:04:07.797Z,35.70
2019-05-03T14:08:15.624Z,37.20
2019-05-03T14:12:20.877Z,36.30
2019-05-03T14:16:26.584Z,36.60
2019-05-03T14:20:49.760Z,39.10
2019-05-03T14:24:55.426Z,34.30
2019-05-03T14:29:01.203Z,34.50
2019-05-03T14:33:06.930Z,35.30
2019-05-03T14:37:12.687Z,39.20
2019-05-03T14:41:18.438Z,36.00
2019-05-03T14:45:25.534Z,35.60
2019-05-03T14:49:31.346Z,35.30
2019-05-03T14:53:38.008Z,37.60
2019-05-03T14:57:45.337Z,37.50
2019-05-03T15:01:58.407Z,37.30
2019-05-03T15:06:05.209Z,37.40
2019-05-03T15:10:11.466Z,37.50
2019-05-03T15:14:17.237Z,38.50
2019-05-03T15:18:22.917Z,39.30
2019-05-03T15:22:28.627Z,39.20
2019-05-03T15:26:35.624Z,40.10
2019-05-03T15:30:41.504Z,40.10
2019-05-03T15:34:55.290Z,42.10
2019-05-03T15:39:00.754Z,41.40
2019-05-03T15:43:09.756Z,42.20
2019-05-03T15:47:25.387Z,41.90
2019-05-03T15:51:31.094Z,42.30
2019-05-03T15:55:36.778Z,40.10
2019-05-03T15:59:44.403Z,41.50
2019-05-03T16:03:49.817Z,40.30
2019-05-03T16:07:55.504Z,39.60
